Time;durP1;ratioP1;P1;durP2;ratioP2;P2;SDS_P1;SDS_P2;PMS_P1;PMS_P2;Temp;Humidity;BMP_temperature;BMP_pressure;BME280_temperature;BME280_humidity;BME280_pressure;Samples;Min_cycle;Max_cycle;Signal;HPM_P1;HPM_P2
2023/05/26 00:00:57;;;;;;;31.70;7.27;;;;;;;7.90;100.00;102180.66;5066120;28;20109;-74
2023/05/26 00:03:22;;;;;;;35.07;7.10;;;;;;;7.79;100.00;102152.16;5104655;28;20039;-74
2023/05/26 00:05:47;;;;;;;28.37;5.93;;;;;;;7.62;100.00;102155.19;5089661;28;20111;-74
2023/05/26 00:08:13;;;;;;;35.07;6.07;;;;;;;7.61;100.00;102164.97;5087010;28;20513;-74
2023/05/26 00:10:38;;;;;;;34.60;6.10;;;;;;;7.56;100.00;102174.22;5107135;28;20031;-74
2023/05/26 00:13:04;;;;;;;33.63;6.77;;;;;;;7.62;100.00;102179.09;5073198;28;20027;-74
2023/05/26 00:15:30;;;;;;;33.30;7.93;;;;;;;7.48;100.00;102153.50;5082493;28;20020;-74
2023/05/26 00:17:57;;;;;;;26.50;5.35;;;;;;;7.53;100.00;102188.56;5095067;28;20540;-74
2023/05/26 00:20:25;;;;;;;29.90;6.28;;;;;;;7.48;100.00;102152.66;5086990;28;20038;-74
2023/05/26 00:22:51;;;;;;;42.53;6.47;;;;;;;7.58;100.00;102181.13;5079676;28;20043;-74
2023/05/26 00:25:16;;;;;;;42.30;8.27;;;;;;;7.49;100.00;102165.84;5073687;28;20016;-74
2023/05/26 00:27:42;;;;;;;38.67;6.67;;;;;;;7.52;100.00;102172.75;5096536;28;20479;-73
2023/05/26 00:30:08;;;;;;;32.77;6.00;;;;;;;7.51;100.00;102173.69;5084735;28;20055;-74
2023/05/26 00:32:33;;;;;;;37.97;6.22;;;;;;;7.52;100.00;102176.25;5101612;28;20082;-74
2023/05/26 00:34:58;;;;;;;48.77;10.77;;;;;;;7.30;100.00;102163.59;5059559;28;20027;-74
2023/05/26 00:37:24;;;;;;;31.63;5.60;;;;;;;7.28;100.00;102184.13;5086443;28;20035;-74
2023/05/26 00:39:49;;;;;;;27.63;6.03;;;;;;;7.26;100.00;102195.78;5088389;28;20024;-74
2023/05/26 00:42:15;;;;;;;36.27;6.70;;;;;;;7.19;100.00;102184.78;5081429;28;20028;-74
2023/05/26 00:44:40;;;;;;;37.30;6.80;;;;;;;7.16;100.00;102184.94;5082384;28;20113;-74
2023/05/26 00:47:06;;;;;;;33.15;6.40;;;;;;;7.11;100.00;102193.22;5086345;28;20402;-73
2023/05/26 00:49:31;;;;;;;35.53;5.30;;;;;;;7.14;100.00;102201.03;5093915;28;20399;-74
2023/05/26 00:51:57;;;;;;;35.20;6.23;;;;;;;7.19;100.00;102184.78;5081005;28;20281;-74
2023/05/26 00:54:22;;;;;;;43.70;6.70;;;;;;;7.05;100.00;102161.81;5066919;28;20030;-74
2023/05/26 00:56:51;;;;;;;32.28;6.57;;;;;;;7.10;100.00;102175.63;5088870;28;20043;-74
2023/05/26 00:59:17;;;;;;;37.65;6.75;;;;;;;7.03;100.00;102155.75;5086247;28;20406;-74
2023/05/26 01:01:43;;;;;;;26.27;5.63;;;;;;;7.04;100.00;102154.78;5093831;28;20032;-74
2023/05/26 01:04:09;;;;;;;;;;;;;;;6.98;100.00;102147.25;5083956;28;20023;-74
2023/05/26 01:06:35;;;;;;;39.85;6.85;;;;;;;6.88;100.00;102140.84;5083483;28;19918;-74
2023/05/26 01:09:01;;;;;;;33.23;7.03;;;;;;;6.75;100.00;102162.06;5070181;28;20600;-73
2023/05/26 01:12:08;;;;;;;33.60;6.30;;;;;;;6.64;100.00;102184.00;5080326;28;20309;-74
2023/05/26 01:15:06;;;;;;;30.75;5.65;;;;;;;6.67;100.00;102199.75;5085141;28;20300;-74
2023/05/26 01:18:16;;;;;;;28.42;5.90;;;;;;;6.68;100.00;102198.78;5094385;28;20097;-74
2023/05/26 01:21:07;;;;;;;30.75;5.93;;;;;;;6.63;100.00;102177.00;5104300;28;20039;-74
2023/05/26 01:23:48;;;;;;;26.05;6.57;;;;;;;6.56;100.00;102178.38;5095407;28;20119;-74
2023/05/26 01:26:32;;;;;;;36.00;5.90;;;;;;;6.61;100.00;102175.41;5088841;28;20049;-74
2023/05/26 01:29:08;;;;;;;28.50;7.82;;;;;;;6.60;100.00;102169.25;5087047;28;20028;-74
2023/05/26 01:31:33;;;;;;;28.13;6.07;;;;;;;6.59;100.00;102159.59;5101368;28;20114;-74
2023/05/26 01:34:00;;;;;;;36.03;8.07;;;;;;;6.50;100.00;102149.59;5084602;28;20534;-74
2023/05/26 01:36:27;;;;;;;34.03;6.05;;;;;;;6.60;100.00;102174.53;5094727;27;20031;-74
2023/05/26 01:38:53;;;;;;;28.17;5.75;;;;;;;6.59;100.00;102164.91;5081529;28;20024;-74
2023/05/26 01:41:28;;;;;;;36.67;6.45;;;;;;;6.58;100.00;102160.56;5097266;28;20028;-74
2023/05/26 01:43:59;;;;;;;28.80;6.17;;;;;;;6.50;100.00;102161.03;5086475;28;20048;-74
2023/05/26 01:46:56;;;;;;;29.13;4.82;;;;;;;6.52;100.00;102174.22;5091693;28;20463;-74
2023/05/26 01:49:28;;;;;;;34.50;6.85;;;;;;;6.52;100.00;102164.44;4980678;28;20052;-74
2023/05/26 01:51:59;;;;;;;33.97;6.43;;;;;;;6.52;100.00;102169.75;4987711;28;20049;-74
2023/05/26 01:54:33;;;;;;;36.42;5.63;;;;;;;6.39;100.00;102147.66;4987428;28;20045;-74
2023/05/26 01:56:59;;;;;;;35.55;6.53;;;;;;;6.39;100.00;102162.69;4992526;28;20125;-74
2023/05/26 01:59:26;;;;;;;;;;;;;;;6.33;100.00;102159.50;4988123;28;20025;-74
2023/05/26 02:01:51;;;;;;;30.50;5.05;;;;;;;6.34;100.00;102169.19;4987158;28;20270;-74
2023/05/26 02:04:16;;;;;;;37.67;7.47;;;;;;;6.34;100.00;102171.84;4994043;28;20136;-74
2023/05/26 02:06:42;;;;;;;35.53;6.90;;;;;;;6.29;100.00;102165.94;4987180;28;20046;-74
2023/05/26 02:09:08;;;;;;;34.57;5.83;;;;;;;6.38;100.00;102182.22;5000567;28;20029;-74
2023/05/26 02:11:33;;;;;;;38.78;6.03;;;;;;;6.39;100.00;102182.16;5003563;28;20507;-74
2023/05/26 02:13:59;;;;;;;35.13;5.60;;;;;;;6.41;100.00;102184.69;4994340;28;20031;-74
2023/05/26 02:16:26;;;;;;;49.50;7.90;;;;;;;6.30;100.00;102180.09;5003070;28;20551;-74
2023/05/26 02:18:52;;;;;;;24.05;6.43;;;;;;;6.28;100.00;102196.09;5002309;28;20772;-74
2023/05/26 02:21:18;;;;;;;;;;;;;;;6.17;100.00;102195.94;4983438;28;20049;-74
2023/05/26 02:23:46;;;;;;;37.83;7.30;;;;;;;6.22;100.00;102212.38;5002920;28;19948;-73
2023/05/26 02:26:13;;;;;;;30.80;5.30;;;;;;;6.21;100.00;102213.34;5094446;28;20069;-73
2023/05/26 02:28:38;;;;;;;22.55;7.50;;;;;;;6.21;100.00;102209.84;5071463;28;20020;-74
2023/05/26 02:31:05;;;;;;;33.72;7.65;;;;;;;6.22;100.00;102215.03;5084637;28;20038;-74
2023/05/26 02:33:32;;;;;;;43.92;7.43;;;;;;;6.11;100.00;102193.66;5077400;28;20112;-74
2023/05/26 02:35:57;;;;;;;34.47;7.95;;;;;;;6.15;100.00;102226.16;5085418;28;20130;-74
2023/05/26 02:38:24;;;;;;;41.53;7.22;;;;;;;6.06;100.00;102220.50;5087836;28;20019;-74
2023/05/26 02:40:50;;;;;;;33.83;7.00;;;;;;;6.05;100.00;102225.88;5069697;28;20038;-74
2023/05/26 02:43:16;;;;;;;39.25;7.53;;;;;;;6.08;100.00;102229.19;5083599;28;20144;-74
2023/05/26 02:45:42;;;;;;;48.78;8.15;;;;;;;6.04;100.00;102246.25;5086165;28;20035;-74
2023/05/26 02:48:07;;;;;;;34.55;6.10;;;;;;;6.04;100.00;102250.69;5085515;28;20024;-74
2023/05/26 02:50:32;;;;;;;25.17;5.13;;;;;;;6.05;100.00;102252.41;5070508;28;20418;-74
2023/05/26 02:52:58;;;;;;;46.67;8.47;;;;;;;5.94;100.00;102250.41;5084905;28;20043;-74
2023/05/26 02:55:24;;;;;;;39.63;6.20;;;;;;;6.02;100.00;102268.50;5093142;28;20059;-74
2023/05/26 02:57:51;;;;;;;;;;;;;;;6.09;100.00;102277.78;5079833;28;20387;-74
2023/05/26 03:00:17;;;;;;;29.58;7.20;;;;;;;5.99;100.00;102268.69;5079175;28;19919;-74
2023/05/26 03:02:43;;;;;;;30.13;6.35;;;;;;;5.89;100.00;102276.31;5064461;28;20083;-74
2023/05/26 03:05:09;;;;;;;41.47;7.82;;;;;;;5.96;100.00;102298.03;5081896;28;20478;-74
2023/05/26 03:07:34;;;;;;;38.58;7.43;;;;;;;6.00;100.00;102288.97;5075983;28;20028;-74
2023/05/26 03:10:00;;;;;;;39.35;7.97;;;;;;;6.02;100.00;102281.75;5064668;28;20520;-74
2023/05/26 03:12:25;;;;;;;38.47;6.80;;;;;;;5.98;100.00;102290.84;5070267;28;20444;-74
2023/05/26 03:14:51;;;;;;;35.88;8.55;;;;;;;5.96;100.00;102292.75;5086189;28;20080;-74
2023/05/26 03:17:18;;;;;;;54.75;7.13;;;;;;;5.94;100.00;102300.78;5087016;28;20040;-74
2023/05/26 03:19:45;;;;;;;36.65;8.43;;;;;;;5.95;100.00;102296.31;5069846;28;20227;-73
2023/05/26 03:22:10;;;;;;;;;;;;;;;6.02;100.00;102305.63;5065152;28;20456;-74
2023/05/26 03:24:36;;;;;;;;;;;;;;;6.01;100.00;102302.09;5081329;28;20019;-74
2023/05/26 03:27:01;;;;;;;33.08;6.80;;;;;;;5.96;100.00;102301.53;5072275;28;19920;-77
2023/05/26 03:29:29;;;;;;;30.45;6.13;;;;;;;5.97;100.00;102310.34;5077966;28;20437;-76
2023/05/26 03:31:55;;;;;;;44.00;8.25;;;;;;;5.99;100.00;102311.09;5084179;28;20059;-76
2023/05/26 03:34:21;;;;;;;;;;;;;;;6.00;100.00;102320.78;5066385;28;20381;-76
2023/05/26 03:36:48;;;;;;;;;;;;;;;5.99;100.00;102309.28;5080385;28;20439;-74
2023/05/26 03:39:21;;;;;;;38.33;7.90;;;;;;;6.03;100.00;102299.38;5066804;28;20224;-74
2023/05/26 03:41:48;;;;;;;41.67;9.75;;;;;;;6.01;100.00;102304.75;5069805;28;20486;-74
2023/05/26 03:44:18;;;;;;;40.00;7.20;;;;;;;6.10;100.00;102311.28;5086413;28;20172;-74
2023/05/26 03:46:45;;;;;;;33.85;8.68;;;;;;;6.15;100.00;102306.56;5069887;28;20020;-74
2023/05/26 03:49:11;;;;;;;45.03;8.63;;;;;;;6.18;100.00;102309.03;5071903;28;20257;-74
2023/05/26 03:51:36;;;;;;;48.43;8.23;;;;;;;6.24;100.00;102308.63;5085007;28;20040;-74
2023/05/26 03:54:02;;;;;;;;;;;;;;;6.31;100.00;102303.78;5084396;28;20039;-74
2023/05/26 03:56:27;;;;;;;;;;;;;;;6.43;100.00;102299.50;5078030;28;20305;-74
2023/05/26 03:58:53;;;;;;;36.73;5.97;;;;;;;6.53;100.00;102303.28;5080777;28;20423;-74
2023/05/26 04:01:20;;;;;;;32.15;6.65;;;;;;;6.54;100.00;102289.06;5066592;28;20056;-74
2023/05/26 04:03:45;;;;;;;31.42;6.70;;;;;;;6.66;100.00;102288.28;5063089;28;20074;-74
2023/05/26 04:06:11;;;;;;;55.30;8.88;;;;;;;6.69;100.00;102274.78;5082893;28;20130;-74
2023/05/26 04:08:37;;;;;;;29.23;7.35;;;;;;;6.79;100.00;102271.53;5084765;28;20034;-74
2023/05/26 04:11:04;;;;;;;;;;;;;;;6.82;100.00;102266.06;5070090;28;20035;-74
2023/05/26 04:13:29;;;;;;;40.58;8.10;;;;;;;6.86;100.00;102257.78;5060173;28;19912;-74
2023/05/26 04:15:55;;;;;;;36.73;5.77;;;;;;;6.91;100.00;102244.22;5099608;28;20521;-74
2023/05/26 04:18:21;;;;;;;29.60;6.40;;;;;;;7.01;100.00;102239.13;5105021;28;20089;-74
2023/05/26 04:20:47;;;;;;;37.45;9.18;;;;;;;7.07;100.00;102231.59;5091839;28;20123;-74
2023/05/26 04:23:14;;;;;;;32.47;7.10;;;;;;;7.09;100.00;102229.66;5072660;28;20047;-74
2023/05/26 04:25:40;;;;;;;42.72;9.48;;;;;;;7.17;100.00;102222.03;5086156;28;20395;-74
2023/05/26 04:28:20;;;;;;;52.83;8.32;;;;;;;7.15;100.00;102208.00;5088025;28;20102;-74
2023/05/26 04:31:01;;;;;;;29.20;7.30;;;;;;;7.19;100.00;102214.81;5066398;28;20402;-74
2023/05/26 04:33:44;;;;;;;30.23;7.20;;;;;;;7.25;100.00;102191.44;5088858;28;20490;-74
2023/05/26 04:36:29;;;;;;;37.72;7.63;;;;;;;7.20;100.00;102178.47;5101495;28;20127;-74
2023/05/26 04:38:55;;;;;;;34.75;7.82;;;;;;;7.36;100.00;102179.13;5084197;28;20099;-74
2023/05/26 04:41:21;;;;;;;31.10;6.15;;;;;;;7.38;100.00;102163.94;5086889;28;20020;-74
2023/05/26 04:43:46;;;;;;;33.30;5.77;;;;;;;7.66;100.00;102171.78;5100388;28;20035;-74
2023/05/26 04:46:13;;;;;;;30.47;5.87;;;;;;;7.68;100.00;102136.16;5084396;28;20356;-74
2023/05/26 04:48:38;;;;;;;;;;;;;;;7.64;100.00;102112.56;5088854;28;20039;-73
2023/05/26 04:51:05;;;;;;;38.22;7.40;;;;;;;7.79;100.00;102117.59;5089370;28;19908;-73
2023/05/26 04:53:31;;;;;;;32.80;6.63;;;;;;;7.86;100.00;102110.03;5083506;28;20035;-73
2023/05/26 04:56:00;;;;;;;33.88;6.28;;;;;;;8.02;100.00;102088.50;5076561;28;20362;-74
2023/05/26 04:58:26;;;;;;;32.40;5.90;;;;;;;8.11;100.00;102082.50;5101269;27;20711;-73
2023/05/26 05:00:53;;;;;;;32.88;8.27;;;;;;;8.11;100.00;102065.69;5081013;28;20466;-73
2023/05/26 05:03:37;;;;;;;27.65;6.50;;;;;;;8.28;100.00;102053.78;5087426;28;20104;-74
2023/05/26 05:06:06;;;;;;;31.42;6.55;;;;;;;8.49;100.00;102017.56;5072856;28;20034;-73
2023/05/26 05:08:32;;;;;;;34.60;7.53;;;;;;;8.61;100.00;101986.50;5077430;28;20024;-75
2023/05/26 05:10:58;;;;;;;24.35;5.38;;;;;;;8.72;100.00;101954.56;5083422;28;20076;-74
2023/05/26 05:13:27;;;;;;;39.05;6.35;;;;;;;8.80;100.00;101930.84;5068667;28;20020;-74
2023/05/26 05:15:53;;;;;;;28.33;6.35;;;;;;;9.19;100.00;101933.09;5075276;28;20131;-74
2023/05/26 05:18:18;;;;;;;24.67;6.50;;;;;;;9.38;100.00;101908.44;5095313;28;20098;-74
2023/05/26 05:20:43;;;;;;;29.27;6.60;;;;;;;9.57;100.00;101857.94;5083138;28;20085;-74
2023/05/26 05:23:09;;;;;;;26.23;6.20;;;;;;;9.89;100.00;101806.38;5083114;28;20055;-74
2023/05/26 05:25:34;;;;;;;46.25;6.18;;;;;;;9.73;100.00;101685.00;5077012;28;20466;-75
2023/05/26 05:28:00;;;;;;;27.20;5.13;;;;;;;10.45;100.00;101757.88;5075171;28;20031;-74
2023/05/26 05:30:26;;;;;;;37.60;6.27;;;;;;;11.21;100.00;101690.41;5066499;28;20116;-73
2023/05/26 05:32:53;;;;;;;30.20;5.50;;;;;;;12.21;100.00;101555.91;5087235;28;20023;-75
2023/05/26 05:35:18;;;;;;;27.40;5.73;;;;;;;12.24;100.00;101290.59;5073804;28;20427;-75
2023/05/26 05:37:44;;;;;;;25.10;6.05;;;;;;;12.48;100.00;101155.09;5071050;28;20378;-75
2023/05/26 05:40:11;;;;;;;25.65;6.00;;;;;;;12.48;100.00;101160.47;5084391;28;20558;-73
2023/05/26 05:42:37;;;;;;;36.08;5.43;;;;;;;12.94;100.00;101130.50;5087929;28;20119;-74
2023/05/26 05:45:05;;;;;;;33.07;5.47;;;;;;;13.31;100.00;101041.50;5091217;28;20042;-75
2023/05/26 05:48:05;;;;;;;27.67;4.95;;;;;;;13.65;100.00;100899.00;5022577;28;20152;-75
2023/05/26 05:50:32;;;;;;;25.10;5.05;;;;;;;13.75;100.00;100882.66;5006716;28;20613;-75
2023/05/26 05:52:58;;;;;;;23.95;5.00;;;;;;;13.76;98.26;100717.94;4999058;28;20037;-75
2023/05/26 05:55:23;;;;;;;30.60;7.50;;;;;;;13.57;98.07;100777.50;5001580;28;20127;-74
2023/05/26 05:57:49;;;;;;;29.10;6.32;;;;;;;13.80;96.46;100772.91;5013474;28;20039;-74
2023/05/26 06:00:15;;;;;;;27.88;5.68;;;;;;;13.84;96.09;100832.44;5007165;28;20034;-74
2023/05/26 06:02:41;;;;;;;23.35;5.35;;;;;;;14.58;95.06;100948.03;5012591;28;20038;-74
2023/05/26 06:05:07;;;;;;;16.30;5.00;;;;;;;14.63;90.67;100687.69;5010184;28;20094;-75
2023/05/26 06:07:32;;;;;;;23.67;4.82;;;;;;;14.84;89.07;100726.34;5009695;28;20040;-74
2023/05/26 06:09:58;;;;;;;21.13;6.25;;;;;;;13.91;89.91;100704.56;5009041;28;20131;-74
2023/05/26 06:12:24;;;;;;;21.15;5.15;;;;;;;13.92;89.71;100728.50;5010560;28;20059;-74
2023/05/26 06:14:50;;;;;;;20.48;5.20;;;;;;;13.06;89.94;100631.47;5022255;28;20080;-74
2023/05/26 06:17:16;;;;;;;28.92;5.28;;;;;;;12.76;91.29;100747.56;5000553;28;20152;-73
2023/05/26 06:19:41;;;;;;;26.70;5.93;;;;;;;12.86;93.83;101008.09;5013775;28;20041;-74
2023/05/26 06:22:07;;;;;;;30.63;6.07;;;;;;;13.06;93.61;101071.03;5008907;28;20049;-74
2023/05/26 06:24:32;;;;;;;22.48;6.20;;;;;;;12.58;93.15;100943.34;5082640;28;20431;-74
2023/05/26 06:26:59;;;;;;;23.00;5.47;;;;;;;12.86;93.59;101078.59;5090022;27;20023;-75
2023/05/26 06:29:24;;;;;;;18.00;4.03;;;;;;;13.01;91.66;100950.06;5085470;28;20119;-75
2023/05/26 06:31:50;;;;;;;28.07;5.33;;;;;;;12.59;91.00;100837.88;5069856;28;20035;-73
2023/05/26 06:34:18;;;;;;;24.48;5.20;;;;;;;13.26;91.60;101092.09;5077497;28;20613;-74
2023/05/26 06:36:47;;;;;;;30.55;6.22;;;;;;;13.44;89.41;100949.75;5086681;28;20026;-74
2023/05/26 06:39:12;;;;;;;32.95;5.65;;;;;;;13.08;87.85;100778.69;5090910;28;20055;-73
2023/05/26 06:41:38;;;;;;;23.05;6.00;;;;;;;14.03;87.04;100986.78;5069492;28;20516;-74
2023/05/26 06:44:04;;;;;;;27.13;4.83;;;;;;;14.59;85.54;100992.69;5078266;28;20064;-74
2023/05/26 06:46:31;;;;;;;18.27;4.45;;;;;;;14.15;81.89;100526.22;5068081;28;20024;-73
2023/05/26 06:48:56;;;;;;;28.85;4.47;;;;;;;13.96;81.19;100486.59;5073910;28;20039;-74
2023/05/26 06:51:43;;;;;;;21.08;4.45;;;;;;;13.79;83.87;100808.84;5097331;28;20401;-74
2023/05/26 06:54:10;;;;;;;24.45;5.13;;;;;;;14.06;82.19;100708.03;5081467;28;20019;-75
2023/05/26 06:56:36;;;;;;;28.13;5.00;;;;;;;13.84;81.71;100672.25;5070632;28;20038;-72
2023/05/26 06:59:01;;;;;;;20.67;4.47;;;;;;;14.24;79.83;100624.44;5105468;28;20027;-74
2023/05/26 07:01:26;;;;;;;22.10;5.13;;;;;;;14.09;80.51;100706.84;5070559;28;20477;-74
2023/05/26 07:03:52;;;;;;;17.47;3.63;;;;;;;14.15;79.59;100657.78;5085132;28;20035;-74
2023/05/26 07:06:17;;;;;;;20.97;4.37;;;;;;;14.58;77.37;100531.59;5089772;28;20169;-74
2023/05/26 07:08:44;;;;;;;19.90;4.60;;;;;;;14.58;77.67;100625.63;5074290;28;20078;-74
2023/05/26 07:11:21;;;;;;;18.77;4.43;;;;;;;14.33;77.90;100612.53;5080554;28;20111;-74
2023/05/26 07:13:52;;;;;;;22.25;5.40;;;;;;;13.67;77.78;100482.97;5085622;28;20167;-75
2023/05/26 07:16:19;;;;;;;19.70;4.70;;;;;;;14.06;78.35;100723.31;5083617;28;20031;-74
2023/05/26 07:18:44;;;;;;;18.77;4.40;;;;;;;13.48;78.84;100624.69;5092711;28;20084;-73
2023/05/26 07:21:09;;;;;;;24.73;4.77;;;;;;;13.16;79.60;100694.69;5070305;28;20039;-74
2023/05/26 07:23:35;;;;;;;25.42;5.43;;;;;;;12.81;79.34;100646.91;5067837;28;20055;-75
2023/05/26 07:26:02;;;;;;;23.30;4.60;;;;;;;13.10;79.16;100749.84;5061466;28;20036;-74
2023/05/26 07:28:28;;;;;;;23.70;5.80;;;;;;;13.26;80.05;100835.53;5093062;28;20501;-74
2023/05/26 07:30:56;;;;;;;22.60;4.22;;;;;;;13.82;79.87;100958.72;5086653;28;20043;-73
2023/05/26 07:33:28;;;;;;;19.45;4.05;;;;;;;14.24;77.46;100831.19;5086790;28;20376;-74
2023/05/26 07:35:53;;;;;;;20.45;5.65;;;;;;;14.55;76.38;100806.84;5083973;28;20432;-74
2023/05/26 07:38:20;;;;;;;19.77;5.90;;;;;;;15.17;75.93;100896.06;5083237;28;20028;-74
2023/05/26 07:40:45;;;;;;;21.10;5.20;;;;;;;15.63;74.37;100866.97;5097124;28;20418;-74
2023/05/26 07:43:12;;;;;;;15.63;3.57;;;;;;;16.02;73.34;100828.00;5099412;28;20023;-75
2023/05/26 07:45:37;;;;;;;18.00;4.20;;;;;;;15.60;70.76;100471.81;5069717;28;20084;-74
2023/05/26 07:48:06;;;;;;;12.88;4.32;;;;;;;14.81;70.19;100189.25;5089825;28;20028;-74
2023/05/26 07:50:31;;;;;;;14.13;3.65;;;;;;;15.29;70.99;100487.59;5101653;28;20402;-74
2023/05/26 07:52:57;;;;;;;17.57;4.70;;;;;;;16.20;69.20;100543.84;5090552;28;20023;-74
2023/05/26 07:55:22;;;;;;;21.30;3.40;;;;;;;16.80;70.36;100845.88;5075187;28;20047;-74
2023/05/26 07:57:48;;;;;;;14.53;4.00;;;;;;;16.00;68.18;100377.69;5098083;28;20024;-75
2023/05/26 08:00:13;;;;;;;18.50;3.77;;;;;;;15.12;68.19;100154.53;5097165;28;20035;-75
2023/05/26 08:02:39;;;;;;;19.27;4.68;;;;;;;13.89;68.69;99957.91;5105073;28;20123;-75
2023/05/26 08:05:05;;;;;;;21.02;5.53;;;;;;;13.57;70.28;100141.81;5091095;28;20089;-74
2023/05/26 08:07:30;;;;;;;19.23;4.30;;;;;;;15.02;70.12;100635.34;5087624;28;20168;-74
2023/05/26 08:09:56;;;;;;;13.27;4.50;;;;;;;15.39;69.11;100558.84;5099284;28;20089;-75
2023/05/26 08:12:21;;;;;;;17.40;4.00;;;;;;;16.30;68.94;100786.75;5109406;28;20108;-75
2023/05/26 08:14:49;;;;;;;17.27;3.30;;;;;;;16.27;65.75;100399.22;5082458;28;20503;-75
2023/05/26 08:17:14;;;;;;;17.70;4.32;;;;;;;16.34;65.87;100436.94;5109388;28;20039;-75
2023/05/26 08:19:39;;;;;;;15.33;3.90;;;;;;;16.58;64.60;100333.91;5102312;28;20522;-74
2023/05/26 08:22:05;;;;;;;12.70;4.03;;;;;;;16.75;63.99;100363.91;5093730;28;20066;-75
2023/05/26 08:24:30;;;;;;;24.52;4.63;;;;;;;16.51;63.91;100297.25;5087118;28;20123;-75
2023/05/26 08:26:56;;;;;;;19.80;3.97;;;;;;;16.83;63.91;100435.66;5081960;28;20031;-76
2023/05/26 08:29:22;;;;;;;16.77;4.23;;;;;;;16.90;62.18;100176.81;5092739;28;20157;-74
2023/05/26 08:31:48;;;;;;;14.27;4.60;;;;;;;17.30;61.89;100304.97;5096083;28;20059;-75
2023/05/26 08:34:13;;;;;;;15.90;3.65;;;;;;;16.67;61.20;100091.94;5089590;28;20059;-75
2023/05/26 08:36:39;;;;;;;20.07;3.50;;;;;;;15.62;61.13;99745.97;5089744;28;20035;-75
2023/05/26 08:39:04;;;;;;;13.40;3.83;;;;;;;16.39;62.44;100278.22;5086861;28;20058;-75
2023/05/26 08:41:39;;;;;;;10.60;3.67;;;;;;;17.40;61.21;100403.50;5104380;28;20494;-75
2023/05/26 08:44:05;;;;;;;13.35;3.45;;;;;;;16.91;58.65;99871.13;5077216;28;20071;-74
2023/05/26 08:46:31;;;;;;;11.40;3.85;;;;;;;16.97;58.67;99978.88;5102129;28;20073;-75
2023/05/26 08:48:57;;;;;;;8.68;3.45;;;;;;;17.42;57.76;100005.59;5092896;28;20032;-75
2023/05/26 08:51:23;;;;;;;12.95;4.22;;;;;;;17.63;58.45;100195.94;5092641;28;20389;-75
2023/05/26 08:53:49;;;;;;;16.60;4.03;;;;;;;18.07;56.29;99996.03;5094415;28;20075;-75
2023/05/26 08:56:16;;;;;;;14.55;4.50;;;;;;;18.33;56.40;100141.56;5089377;28;20077;-75
2023/05/26 08:58:42;;;;;;;;;;;;;;;18.19;56.53;100104.13;5083924;28;20104;-76
2023/05/26 09:01:08;;;;;;;12.38;3.90;;;;;;;17.71;54.87;99747.53;5079917;28;20282;-76
2023/05/26 09:03:33;;;;;;;13.60;3.60;;;;;;;18.18;55.31;100021.44;5099049;28;20050;-75
2023/05/26 09:05:58;;;;;;;14.37;3.53;;;;;;;18.56;54.32;99945.38;5066324;28;20027;-76
2023/05/26 09:08:24;;;;;;;12.17;3.60;;;;;;;18.34;52.89;99654.13;5105223;28;20068;-75
2023/05/26 09:10:49;;;;;;;12.90;3.28;;;;;;;18.14;53.24;99654.56;5089123;27;20024;-76
2023/05/26 09:13:17;;;;;;;9.53;3.27;;;;;;;18.45;53.93;99941.63;5083504;28;20039;-76
2023/05/26 09:15:43;;;;;;;11.80;3.83;;;;;;;18.40;53.36;99863.13;5099773;28;20046;-76
2023/05/26 09:18:13;;;;;;;10.93;3.30;;;;;;;19.51;53.55;100350.28;5103280;28;20469;-76
2023/05/26 09:20:43;;;;;;;14.88;3.80;;;;;;;19.76;52.97;100323.06;5095130;28;20039;-76
2023/05/26 09:23:09;;;;;;;13.13;3.25;;;;;;;19.80;52.93;100269.25;5097475;28;20468;-76
2023/05/26 09:25:36;;;;;;;9.90;3.10;;;;;;;19.48;52.16;100035.88;5086962;28;20037;-76
2023/05/26 09:28:03;;;;;;;10.00;3.85;;;;;;;17.45;53.03;99462.78;5071898;28;20542;-76
2023/05/26 09:30:40;;;;;;;18.73;5.53;;;;;;;16.93;55.56;99801.59;5086182;28;20395;-75
2023/05/26 09:33:10;;;;;;;15.02;4.45;;;;;;;16.63;55.53;99767.34;5091609;28;20032;-75
2023/05/26 09:35:41;;;;;;;11.23;4.03;;;;;;;15.85;57.64;99859.44;5066291;28;20127;-75
2023/05/26 09:38:08;;;;;;;15.90;4.35;;;;;;;16.56;58.54;100362.09;5088725;28;20123;-75
2023/05/26 09:40:35;;;;;;;13.68;4.65;;;;;;;17.12;56.96;100217.75;5088717;28;20490;-75
2023/05/26 09:43:01;;;;;;;19.08;4.22;;;;;;;17.25;57.74;100385.69;5083491;28;20626;-75
2023/05/26 09:45:36;;;;;;;14.48;4.75;;;;;;;16.63;57.57;100160.78;5079453;28;20024;-75
2023/05/26 09:48:05;;;;;;;16.05;4.20;;;;;;;15.35;58.61;99850.22;5099689;28;20401;-75
2023/05/26 09:50:32;;;;;;;18.13;4.50;;;;;;;15.52;60.47;100267.53;5082863;28;20044;-75
2023/05/26 09:52:59;;;;;;;22.25;6.03;;;;;;;15.12;59.77;100041.63;5090917;28;20031;-74
2023/05/26 09:55:25;;;;;;;15.38;5.07;;;;;;;17.06;60.57;100893.69;5093166;28;20028;-74
2023/05/26 09:57:53;;;;;;;14.60;4.63;;;;;;;16.08;58.58;100118.16;5074713;28;20043;-75
2023/05/26 10:00:20;;;;;;;9.45;3.80;;;;;;;16.16;59.32;100327.97;5067276;28;20489;-75
2023/05/26 10:02:47;;;;;;;14.40;4.68;;;;;;;15.82;59.85;100257.16;5065210;28;20031;-75
2023/05/26 10:05:13;;;;;;;22.73;5.53;;;;;;;15.40;61.66;100382.97;5100561;28;20016;-74
2023/05/26 10:07:41;;;;;;;17.92;5.55;;;;;;;15.22;62.27;100459.84;5099625;28;20042;-74
2023/05/26 10:10:13;;;;;;;18.65;4.35;;;;;;;15.22;62.33;100451.78;5090977;28;20027;-75
2023/05/26 10:12:40;;;;;;;16.00;5.53;;;;;;;16.11;62.54;100817.06;5092754;28;20032;-74
2023/05/26 10:15:05;;;;;;;;;;;;;;;15.40;61.14;100306.81;5088437;28;20483;-74
2023/05/26 10:17:30;;;;;;;;;;;;;;;16.06;62.66;100806.06;5100088;28;20489;-74
2023/05/26 10:19:57;;;;;;;22.80;5.73;;;;;;;17.14;60.39;100831.47;5080155;28;19915;-74
2023/05/26 10:22:27;;;;;;;16.45;5.53;;;;;;;17.53;59.93;100873.06;5096297;28;20032;-74
2023/05/26 10:25:02;;;;;;;14.00;4.60;;;;;;;17.40;59.08;100630.19;5075270;28;20028;-74
2023/05/26 10:28:06;;;;;;;20.90;5.40;;;;;;;16.87;59.94;100550.13;5085112;28;20459;-74
2023/05/26 10:30:32;;;;;;;15.30;5.10;;;;;;;16.93;59.70;100588.91;5099373;28;20043;-74
2023/05/26 10:33:08;;;;;;;19.80;5.30;;;;;;;16.25;60.93;100506.38;5067646;28;20386;-74
2023/05/26 10:35:34;;;;;;;18.30;5.00;;;;;;;16.29;61.41;100601.88;5085793;28;20038;-75
2023/05/26 10:38:02;;;;;;;16.83;5.43;;;;;;;16.39;61.40;100671.56;5092048;28;20393;-74
2023/05/26 10:40:33;;;;;;;16.30;4.47;;;;;;;16.18;61.34;100557.53;5090804;28;20043;-74
2023/05/26 10:43:00;;;;;;;27.20;6.63;;;;;;;15.98;61.03;100490.16;5098265;28;20040;-74
2023/05/26 10:45:32;;;;;;;16.08;4.30;;;;;;;15.62;60.97;100316.38;5108412;27;20023;-75
2023/05/26 10:48:05;;;;;;;18.65;4.80;;;;;;;16.04;61.28;100556.66;5096185;28;20039;-75
2023/05/26 10:50:58;;;;;;;24.52;4.90;;;;;;;15.71;60.72;100340.41;5097681;28;20074;-74
2023/05/26 10:53:56;;;;;;;13.43;4.35;;;;;;;15.62;61.58;100483.19;5085631;28;20462;-75
2023/05/26 10:56:33;;;;;;;18.67;4.35;;;;;;;15.99;62.72;100720.69;5096094;28;20043;-74
2023/05/26 10:58:58;;;;;;;18.75;4.10;;;;;;;16.24;62.72;100820.66;5098728;28;20035;-74
2023/05/26 11:01:32;;;;;;;13.10;3.73;;;;;;;17.57;60.97;101057.88;5067066;28;20016;-75
2023/05/26 11:04:09;;;;;;;10.85;3.42;;;;;;;18.32;58.62;100877.66;5107513;27;20031;-74
2023/05/26 11:07:00;;;;;;;15.40;5.00;;;;;;;18.87;57.62;100904.41;5092335;28;20290;-75
2023/05/26 11:09:27;;;;;;;17.70;4.53;;;;;;;18.90;56.02;100627.22;5082190;22;20477;-78
2023/05/26 11:11:54;;;;;;;14.13;5.05;;;;;;;18.25;55.84;100322.09;5027263;28;20081;-77
2023/05/26 11:14:33;;;;;;;14.63;4.28;;;;;;;19.11;54.37;100496.13;5026544;28;20040;-78
2023/05/26 11:17:04;;;;;;;14.98;3.80;;;;;;;18.32;54.40;100120.19;5043581;28;20037;-78
2023/05/26 11:19:34;;;;;;;13.18;4.45;;;;;;;17.88;56.91;100395.72;5026294;28;20029;-77
2023/05/26 11:22:03;;;;;;;12.18;4.30;;;;;;;17.60;57.78;100409.59;5043131;28;20067;-78
2023/05/26 11:24:30;;;;;;;12.15;3.97;;;;;;;17.92;57.46;100610.31;5026602;28;20498;-78
2023/05/26 11:26:55;;;;;;;14.38;4.32;;;;;;;17.88;57.07;100467.81;5027251;28;20041;-77